Time;durP1;ratioP1;P1;durP2;ratioP2;P2;SDS_P1;SDS_P2;PMS_P1;PMS_P2;Temp;Humidity;BMP_temperature;BMP_pressure;BME280_temperature;BME280_humidity;BME280_pressure;Samples;Min_cycle;Max_cycle;Signal;HPM_P1;HPM_P2
2022/09/24 00:02:00;;;;;;;46.70;26.27;;;13.50;99.90;;;;;;5032804;28;20056;-82
2022/09/24 00:04:26;;;;;;;45.33;24.27;;;13.50;99.90;;;;;;5039621;28;20493;-83
2022/09/24 00:06:52;;;;;;;43.47;24.27;;;13.60;99.90;;;;;;5016406;28;20128;-83
2022/09/24 00:09:20;;;;;;;46.90;26.25;;;13.50;99.90;;;;;;5052481;28;20560;-84
2022/09/24 00:11:51;;;;;;;46.10;25.13;;;13.60;99.90;;;;;;5053786;28;20044;-83
2022/09/24 00:14:17;;;;;;;43.72;24.92;;;13.50;99.90;;;;;;5013244;28;20486;-83
2022/09/24 00:16:44;;;;;;;41.85;24.35;;;13.50;99.90;;;;;;5036111;28;20045;-83
2022/09/24 00:19:12;;;;;;;47.50;26.48;;;13.50;99.90;;;;;;5017738;28;20076;-82
2022/09/24 00:21:39;;;;;;;47.25;27.02;;;13.60;99.90;;;;;;5015550;28;20089;-83
2022/09/24 00:27:07;;;;;;;49.75;28.20;;;13.60;99.90;;;;;;5022838;28;20128;-84
2022/09/24 00:29:34;;;;;;;42.33;24.50;;;13.50;99.90;;;;;;5012050;28;20120;-84
2022/09/24 00:32:01;;;;;;;45.80;25.42;;;13.60;99.90;;;;;;4999536;28;20467;-82
2022/09/24 00:34:26;;;;;;;49.58;27.15;;;13.50;99.90;;;;;;5016892;28;20089;-86
2022/09/24 00:36:52;;;;;;;44.78;25.42;;;13.50;99.90;;;;;;5020421;28;20079;-83
2022/09/24 00:39:18;;;;;;;49.00;24.88;;;13.50;99.90;;;;;;5017293;28;20056;-83
2022/09/24 00:41:47;;;;;;;42.60;24.90;;;13.60;99.90;;;;;;5033914;28;20054;-82
2022/09/24 00:44:44;;;;;;;53.85;26.25;;;13.50;99.90;;;;;;5036775;28;20049;-82
2022/09/24 00:47:39;;;;;;;45.50;24.98;;;13.50;99.90;;;;;;5022450;28;20045;-82
2022/09/24 00:50:30;;;;;;;53.55;25.58;;;13.60;99.90;;;;;;5015762;28;20045;-82
2022/09/24 00:53:05;;;;;;;47.03;26.13;;;13.50;99.90;;;;;;5024077;28;20064;-82
2022/09/24 00:55:33;;;;;;;43.90;25.30;;;13.50;99.90;;;;;;5022571;28;20132;-82
2022/09/24 00:58:02;;;;;;;47.63;26.00;;;13.50;99.90;;;;;;5015266;28;20060;-83
2022/09/24 01:00:29;;;;;;;42.42;23.85;;;13.40;99.90;;;;;;5030768;28;20046;-82
2022/09/24 01:03:10;;;;;;;41.25;24.13;;;13.50;99.90;;;;;;5047557;28;20045;-82
2022/09/24 01:05:37;;;;;;;50.22;24.85;;;13.50;99.90;;;;;;5052036;28;20056;-82
2022/09/24 01:08:03;;;;;;;40.85;24.05;;;13.40;99.90;;;;;;5004526;28;20053;-83
2022/09/24 01:10:47;;;;;;;39.88;24.13;;;13.40;99.90;;;;;;5014585;28;20053;-83
2022/09/24 01:13:39;;;;;;;49.33;26.10;;;13.40;99.90;;;;;;5006003;28;20045;-83
2022/09/24 01:16:13;;;;;;;42.85;24.75;;;13.40;99.90;;;;;;5015344;28;20586;-83
2022/09/24 01:18:45;;;;;;;45.72;25.85;;;13.40;99.90;;;;;;5003314;28;20172;-82
2022/09/24 01:21:32;;;;;;;48.30;27.08;;;13.40;99.90;;;;;;4984142;28;20041;-82
2022/09/24 01:24:09;;;;;;;44.22;25.20;;;13.40;99.90;;;;;;5039274;28;20053;-82
2022/09/24 01:26:43;;;;;;;43.10;23.45;;;13.40;99.90;;;;;;5034867;28;20426;-82
2022/09/24 01:29:48;;;;;;;43.22;23.55;;;13.40;99.90;;;;;;5016125;28;20053;-83
2022/09/24 01:32:38;;;;;;;48.33;24.55;;;13.40;99.90;;;;;;5042707;28;20345;-83
2022/09/24 01:35:20;;;;;;;43.70;24.90;;;13.40;99.90;;;;;;5017721;28;20135;-83
2022/09/24 01:37:52;;;;;;;39.80;23.45;;;13.40;99.90;;;;;;5031928;28;20045;-82
2022/09/24 01:40:19;;;;;;;;;;;13.40;99.90;;;;;;5022285;28;20061;-83
2022/09/24 01:42:45;;;;;;;41.80;23.33;;;13.40;99.90;;;;;;5028980;28;19924;-82
2022/09/24 01:45:12;;;;;;;40.85;23.83;;;13.30;99.90;;;;;;5010439;28;20049;-82
2022/09/24 01:47:40;;;;;;;44.00;24.33;;;13.40;99.90;;;;;;5032940;28;20049;-84
2022/09/24 01:50:09;;;;;;;46.55;26.25;;;13.40;99.90;;;;;;5018397;28;20051;-82
2022/09/24 01:53:01;;;;;;;46.90;25.60;;;13.30;99.90;;;;;;5026539;28;20056;-87
2022/09/24 01:55:32;;;;;;;47.63;25.52;;;13.30;99.90;;;;;;4995217;28;20148;-83
2022/09/24 01:58:04;;;;;;;47.15;25.20;;;13.30;99.90;;;;;;5014925;28;20049;-82
2022/09/24 02:00:30;;;;;;;47.05;23.83;;;13.30;99.90;;;;;;5046406;28;20045;-83
2022/09/24 02:03:10;;;;;;;46.22;23.98;;;13.30;99.90;;;;;;5014408;28;20079;-83
2022/09/24 02:06:02;;;;;;;43.83;23.52;;;13.30;99.90;;;;;;5014360;28;20576;-83
2022/09/24 02:08:46;;;;;;;47.35;24.98;;;13.40;99.90;;;;;;5014508;28;20060;-82
2022/09/24 02:11:16;;;;;;;43.50;24.00;;;13.30;99.90;;;;;;5044760;28;20072;-82
2022/09/24 02:13:53;;;;;;;51.55;24.85;;;13.30;99.90;;;;;;5030266;28;20414;-82
2022/09/24 02:16:24;;;;;;;44.90;24.55;;;13.30;99.90;;;;;;5016493;28;20102;-83
2022/09/24 02:18:53;;;;;;;49.43;26.43;;;13.30;99.90;;;;;;5025495;28;20057;-83
2022/09/24 02:21:22;;;;;;;46.90;25.48;;;13.30;99.90;;;;;;5005715;28;20045;-82
2022/09/24 02:24:00;;;;;;;43.92;23.33;;;13.30;99.90;;;;;;5053542;28;20052;-82
2022/09/24 02:26:26;;;;;;;48.72;24.00;;;13.30;99.90;;;;;;5038011;28;20438;-82
2022/09/24 02:28:52;;;;;;;43.78;23.42;;;13.30;99.90;;;;;;5037935;28;20048;-82
2022/09/24 02:31:26;;;;;;;51.53;24.63;;;13.30;99.90;;;;;;5016856;28;20034;-83
2022/09/24 02:36:38;;;;;;;47.10;24.52;;;13.20;99.90;;;;;;5030294;28;20053;-82
2022/09/24 02:39:04;;;;;;;48.25;24.98;;;13.20;99.90;;;;;;5017883;28;20053;-82
2022/09/24 02:41:30;;;;;;;46.05;25.00;;;13.20;99.90;;;;;;5033536;28;20529;-86
2022/09/24 02:43:57;;;;;;;46.95;24.23;;;13.10;99.90;;;;;;5049946;28;20053;-82
2022/09/24 02:46:23;;;;;;;48.08;24.90;;;13.10;99.90;;;;;;5019670;28;20041;-82
2022/09/24 02:48:48;;;;;;;52.85;26.20;;;13.10;99.90;;;;;;4997642;28;20048;-85
2022/09/24 02:51:14;;;;;;;51.17;24.25;;;13.10;99.90;;;;;;5003619;28;20045;-83
2022/09/24 02:53:40;;;;;;;45.42;25.15;;;13.10;99.90;;;;;;5020548;28;20041;-82
2022/09/24 02:56:06;;;;;;;45.70;24.73;;;13.10;99.90;;;;;;5037151;28;20045;-82
2022/09/24 02:58:36;;;;;;;48.80;26.42;;;13.10;99.90;;;;;;5021596;28;20079;-85
2022/09/24 03:01:03;;;;;;;45.90;24.60;;;13.10;99.90;;;;;;5036089;28;20037;-82
2022/09/24 03:03:29;;;;;;;48.80;25.70;;;13.10;99.90;;;;;;5024167;28;20045;-82
2022/09/24 03:05:54;;;;;;;48.22;24.85;;;13.10;99.90;;;;;;5008465;28;20088;-82
2022/09/24 03:08:23;;;;;;;47.40;24.98;;;13.10;99.90;;;;;;5034137;28;20037;-83
2022/09/24 03:10:49;;;;;;;44.95;24.33;;;13.10;99.90;;;;;;5038659;28;20442;-82
2022/09/24 03:13:16;;;;;;;51.95;26.05;;;13.20;99.90;;;;;;4990214;28;20041;-82
2022/09/24 03:15:43;;;;;;;49.55;24.58;;;13.20;99.90;;;;;;5020658;28;20475;-81
2022/09/24 03:18:09;;;;;;;43.72;25.00;;;13.20;99.90;;;;;;5039250;28;20052;-82
2022/09/24 03:20:35;;;;;;;52.55;26.67;;;13.20;99.90;;;;;;5009201;28;20044;-82
2022/09/24 03:23:01;;;;;;;45.40;24.45;;;13.20;99.90;;;;;;5017351;28;20076;-82
2022/09/24 03:25:26;;;;;;;47.35;25.92;;;13.10;99.90;;;;;;5036095;28;20041;-81
2022/09/24 03:27:52;;;;;;;43.22;23.40;;;13.10;99.90;;;;;;5002579;28;20120;-83
2022/09/24 03:33:02;;;;;;;54.30;28.13;;;13.00;99.90;;;;;;5031455;28;20127;-82
2022/09/24 03:35:27;;;;;;;47.97;24.60;;;13.00;99.90;;;;;;5004505;28;20085;-82
2022/09/24 03:37:54;;;;;;;47.22;25.13;;;13.00;99.90;;;;;;5025408;28;20060;-82
2022/09/24 03:40:20;;;;;;;47.25;25.55;;;12.90;99.90;;;;;;5019033;28;20075;-82
2022/09/24 03:42:45;;;;;;;48.83;26.15;;;12.90;99.90;;;;;;4989165;28;20416;-83
2022/09/24 03:45:11;;;;;;;44.63;23.85;;;12.90;99.90;;;;;;4994413;28;20092;-81
2022/09/24 03:47:37;;;;;;;51.05;25.40;;;12.90;99.90;;;;;;5027930;28;20052;-82
2022/09/24 03:50:04;;;;;;;49.88;26.10;;;12.90;99.90;;;;;;5038805;28;20041;-82
2022/09/24 03:52:29;;;;;;;49.85;25.90;;;12.90;99.90;;;;;;5039258;28;20072;-82
2022/09/24 03:54:55;;;;;;;42.95;24.88;;;12.90;99.90;;;;;;5018687;28;20190;-84
2022/09/24 03:57:21;;;;;;;47.55;25.25;;;13.00;99.90;;;;;;5030019;28;20476;-82
2022/09/24 03:59:47;;;;;;;51.42;25.73;;;13.00;99.90;;;;;;5000899;28;20411;-82
2022/09/24 04:02:13;;;;;;;48.92;25.73;;;13.00;99.90;;;;;;4998275;28;20060;-82
2022/09/24 04:04:38;;;;;;;46.33;24.63;;;13.00;99.90;;;;;;5034297;28;20539;-82
2022/09/24 04:07:05;;;;;;;44.63;25.25;;;13.00;99.90;;;;;;4983783;28;20392;-82
2022/09/24 04:09:30;;;;;;;46.25;24.08;;;13.00;99.90;;;;;;5015637;28;20266;-83
2022/09/24 04:11:57;;;;;;;49.53;26.27;;;13.00;99.90;;;;;;5019956;28;20041;-82
2022/09/24 04:14:23;;;;;;;47.30;25.05;;;13.00;99.90;;;;;;5031145;28;20053;-82
2022/09/24 04:16:49;;;;;;;49.45;26.25;;;13.00;99.90;;;;;;5020846;28;20057;-82
2022/09/24 04:19:15;;;;;;;47.55;24.40;;;13.00;99.90;;;;;;4999419;28;20480;-85
2022/09/24 04:21:41;;;;;;;50.00;27.25;;;13.00;99.90;;;;;;5010872;28;20085;-82
2022/09/24 04:24:07;;;;;;;49.10;25.52;;;13.00;99.90;;;;;;5025567;28;20543;-82
2022/09/24 04:26:33;;;;;;;48.95;24.63;;;13.00;99.90;;;;;;4983403;28;20168;-82
2022/09/24 04:28:59;;;;;;;49.30;25.90;;;13.00;99.90;;;;;;5016059;28;20391;-82
2022/09/24 04:31:28;;;;;;;46.90;25.45;;;13.00;99.90;;;;;;5015314;28;20048;-82
2022/09/24 04:33:54;;;;;;;48.42;25.88;;;12.90;99.90;;;;;;5023646;28;20128;-82
2022/09/24 04:36:20;;;;;;;48.33;26.55;;;13.00;99.90;;;;;;5042040;28;20199;-82
2022/09/24 04:38:46;;;;;;;50.35;26.45;;;13.00;99.90;;;;;;5031052;28;20049;-82
2022/09/24 04:41:14;;;;;;;50.83;27.30;;;12.90;99.90;;;;;;5014089;28;20052;-82
2022/09/24 04:43:40;;;;;;;54.30;28.63;;;13.00;99.90;;;;;;4999129;28;20045;-82
2022/09/24 04:46:08;;;;;;;48.50;26.65;;;12.90;99.90;;;;;;4994860;28;20087;-82
2022/09/24 04:48:36;;;;;;;48.70;26.95;;;13.00;99.90;;;;;;5015303;28;20045;-82
2022/09/24 04:51:02;;;;;;;50.45;27.02;;;13.00;99.90;;;;;;4999465;28;20052;-82
2022/09/24 04:53:27;;;;;;;51.20;26.83;;;13.00;99.90;;;;;;5016780;28;20373;-82
2022/09/24 04:55:53;;;;;;;52.30;26.67;;;13.00;99.90;;;;;;5030319;28;20056;-82
2022/09/24 04:58:19;;;;;;;50.72;27.38;;;13.00;99.90;;;;;;5019041;28;20053;-82
2022/09/24 05:00:44;;;;;;;48.70;27.13;;;13.00;99.90;;;;;;5002467;28;20072;-84
2022/09/24 05:03:10;;;;;;;47.58;26.38;;;13.00;99.90;;;;;;5032761;28;20053;-82
2022/09/24 05:05:36;;;;;;;49.83;26.35;;;13.00;99.90;;;;;;5031128;28;20053;-82
2022/09/24 05:08:03;;;;;;;46.53;26.50;;;13.00;99.90;;;;;;5052745;28;20064;-82
2022/09/24 05:10:31;;;;;;;49.90;26.63;;;13.10;99.90;;;;;;5039481;28;20088;-82
2022/09/24 05:12:57;;;;;;;49.10;27.15;;;13.10;99.90;;;;;;5020601;28;20052;-82
2022/09/24 05:15:23;;;;;;;47.72;25.42;;;13.10;99.90;;;;;;5034760;28;20071;-82
2022/09/24 05:17:49;;;;;;;47.40;26.10;;;13.10;99.90;;;;;;5044956;28;20103;-82
2022/09/24 05:20:15;;;;;;;52.13;27.23;;;13.10;99.90;;;;;;5046398;28;20049;-83
2022/09/24 05:22:45;;;;;;;49.28;26.17;;;13.20;99.90;;;;;;5014721;28;20088;-82
2022/09/24 05:25:12;;;;;;;54.53;27.17;;;13.20;99.90;;;;;;5033262;28;20134;-82
2022/09/24 05:27:44;;;;;;;51.85;25.77;;;13.20;99.90;;;;;;5026092;28;20056;-82
2022/09/24 05:30:11;;;;;;;52.38;26.88;;;13.20;99.90;;;;;;5032357;28;20132;-83
2022/09/24 05:32:37;;;;;;;50.53;26.90;;;13.20;99.90;;;;;;5051131;28;20090;-82
2022/09/24 05:35:03;;;;;;;51.47;27.67;;;13.20;99.90;;;;;;5010653;28;20057;-82
2022/09/24 05:37:28;;;;;;;53.38;26.38;;;13.20;99.90;;;;;;4982514;28;20392;-82
2022/09/24 05:39:54;;;;;;;48.90;26.95;;;13.20;99.90;;;;;;5007833;28;20049;-83
2022/09/24 05:42:20;;;;;;;53.67;27.20;;;13.20;99.90;;;;;;5018269;28;20053;-86
2022/09/24 05:44:47;;;;;;;47.90;26.45;;;13.20;99.90;;;;;;5008923;28;20472;-82
2022/09/24 05:47:12;;;;;;;50.97;26.63;;;13.30;99.90;;;;;;5018163;28;20148;-82
2022/09/24 05:49:38;;;;;;;46.72;25.40;;;13.30;99.90;;;;;;5030093;28;20206;-82
2022/09/24 05:52:05;;;;;;;48.28;26.65;;;13.30;99.90;;;;;;5031153;28;20037;-81
2022/09/24 05:54:30;;;;;;;48.10;25.67;;;13.30;99.90;;;;;;5046090;28;20503;-82
2022/09/24 05:56:56;;;;;;;47.60;23.90;;;13.30;99.90;;;;;;4998307;28;20049;-82
2022/09/24 05:59:23;;;;;;;48.65;24.45;;;13.30;99.90;;;;;;5014385;28;20502;-83
2022/09/24 06:01:49;;;;;;;47.55;25.00;;;13.40;99.90;;;;;;5001636;28;20046;-83
2022/09/24 06:04:15;;;;;;;46.63;24.27;;;13.40;99.90;;;;;;5027577;28;20396;-82
2022/09/24 06:06:41;;;;;;;40.53;23.20;;;13.40;99.90;;;;;;5010552;28;20072;-82
2022/09/24 06:09:08;;;;;;;42.13;22.15;;;13.40;99.90;;;;;;5027594;28;20053;-82
2022/09/24 06:11:34;;;;;;;45.60;24.48;;;13.40;99.90;;;;;;5014790;28;20064;-82
2022/09/24 06:14:03;;;;;;;45.78;22.83;;;13.40;99.90;;;;;;5047647;28;20045;-82
2022/09/24 06:16:31;;;;;;;43.65;22.92;;;13.40;99.90;;;;;;5039503;28;20049;-82
2022/09/24 06:18:57;;;;;;;41.72;22.65;;;13.50;99.90;;;;;;5031378;28;20049;-84
2022/09/24 06:21:22;;;;;;;41.55;22.95;;;13.50;99.90;;;;;;5031686;28;20037;-83
2022/09/24 06:23:48;;;;;;;39.80;22.83;;;13.50;99.90;;;;;;5032620;28;20077;-83
2022/09/24 06:26:14;;;;;;;40.55;22.90;;;13.50;99.90;;;;;;5029054;28;20040;-84
2022/09/24 06:28:40;;;;;;;42.30;23.10;;;13.50;99.90;;;;;;5031967;28;20055;-83
2022/09/24 06:31:08;;;;;;;39.13;21.13;;;13.50;99.90;;;;;;5014526;28;20053;-82
2022/09/24 06:33:34;;;;;;;42.47;22.27;;;13.50;99.90;;;;;;5016611;28;20069;-82
2022/09/24 06:36:01;;;;;;;39.63;21.88;;;13.50;99.90;;;;;;5013540;28;20464;-82
2022/09/24 06:38:28;;;;;;;38.70;21.15;;;13.50;99.90;;;;;;5022483;28;20140;-82
2022/09/24 06:41:02;;;;;;;41.90;21.52;;;13.50;99.90;;;;;;5033340;28;20538;-82
2022/09/24 06:43:28;;;;;;;44.05;20.95;;;13.50;99.90;;;;;;5033662;28;20103;-81
2022/09/24 06:45:55;;;;;;;42.85;22.25;;;13.50;99.90;;;;;;5017753;28;20084;-82
2022/09/24 06:48:22;;;;;;;43.10;22.08;;;13.50;99.90;;;;;;5043119;28;20151;-81
2022/09/24 06:50:47;;;;;;;45.17;22.10;;;13.60;99.90;;;;;;5032881;28;20102;-81
2022/09/24 06:53:13;;;;;;;43.50;21.85;;;13.50;99.90;;;;;;4983295;28;20451;-82
2022/09/24 06:55:39;;;;;;;41.72;21.67;;;13.60;99.90;;;;;;5014093;28;20053;-82
2022/09/24 06:58:07;;;;;;;42.72;20.83;;;13.50;99.90;;;;;;5030264;28;20049;-82
2022/09/24 07:00:34;;;;;;;39.42;21.42;;;13.50;99.90;;;;;;4996831;28;20046;-82
2022/09/24 07:02:59;;;;;;;40.38;20.20;;;13.50;99.90;;;;;;5024958;28;20498;-82
2022/09/24 07:05:25;;;;;;;45.13;21.83;;;13.50;99.90;;;;;;5017547;28;20045;-86
2022/09/24 07:07:51;;;;;;;42.58;20.52;;;13.60;99.90;;;;;;5030804;28;20212;-83
2022/09/24 07:10:17;;;;;;;43.42;21.52;;;13.50;99.90;;;;;;5012458;28;20072;-84
2022/09/24 07:12:42;;;;;;;45.00;22.60;;;13.50;99.90;;;;;;5035692;28;20040;-82
2022/09/24 07:15:09;;;;;;;40.10;20.58;;;13.50;99.90;;;;;;5025188;28;20041;-82
2022/09/24 07:17:35;;;;;;;45.83;22.67;;;13.50;99.90;;;;;;5039660;28;20056;-82
2022/09/24 07:20:01;;;;;;;43.53;21.98;;;13.50;99.90;;;;;;5037333;28;20307;-85
2022/09/24 07:22:27;;;;;;;42.92;22.70;;;13.50;99.90;;;;;;5014171;28;20041;-80
2022/09/24 07:24:53;;;;;;;42.85;22.50;;;13.50;99.90;;;;;;5023165;28;20040;-82
2022/09/24 07:27:20;;;;;;;44.10;21.63;;;13.50;99.90;;;;;;5022409;28;20072;-82
2022/09/24 07:29:46;;;;;;;31.50;18.02;;;13.50;99.90;;;;;;5024325;28;20053;-81
2022/09/24 07:32:15;;;;;;;29.55;14.85;;;13.50;99.90;;;;;;5038098;28;20372;-82
2022/09/24 07:34:41;;;;;;;26.58;12.80;;;13.50;99.90;;;;;;5020428;28;20447;-80
2022/09/24 07:37:07;;;;;;;21.48;11.88;;;13.40;99.90;;;;;;5054297;28;20049;-81
2022/09/24 07:39:32;;;;;;;20.05;11.35;;;13.50;99.90;;;;;;4997530;28;20057;-81
2022/09/24 07:42:00;;;;;;;20.10;10.38;;;13.50;99.90;;;;;;5037550;28;20049;-81
2022/09/24 07:44:27;;;;;;;25.13;12.07;;;13.50;99.90;;;;;;5016211;28;20400;-80
2022/09/24 07:46:54;;;;;;;22.67;12.55;;;13.60;99.90;;;;;;5017115;28;20057;-81
2022/09/24 07:49:20;;;;;;;23.27;13.10;;;13.60;99.90;;;;;;5016568;28;20048;-80
2022/09/24 07:51:46;;;;;;;20.35;11.18;;;13.60;99.90;;;;;;4992595;28;20437;-81
2022/09/24 07:54:12;;;;;;;20.10;11.75;;;13.70;99.90;;;;;;5012640;28;20049;-81
2022/09/24 07:56:37;;;;;;;16.90;9.82;;;13.70;99.90;;;;;;5027342;28;20396;-81
2022/09/24 07:59:05;;;;;;;18.27;9.13;;;13.80;99.90;;;;;;5026197;28;20120;-83
2022/09/24 08:01:32;;;;;;;13.73;7.78;;;13.90;99.90;;;;;;5006398;28;20061;-83
2022/09/24 08:03:58;;;;;;;13.95;6.93;;;13.90;99.90;;;;;;5015624;28;20041;-81
2022/09/24 08:06:24;;;;;;;9.57;6.15;;;14.00;99.90;;;;;;5024015;28;20479;-80
2022/09/24 08:08:52;;;;;;;12.55;5.82;;;14.10;99.90;;;;;;5040677;28;20045;-79
2022/09/24 08:11:18;;;;;;;11.65;6.75;;;14.20;99.90;;;;;;5018153;28;20487;-82
2022/09/24 08:13:45;;;;;;;13.55;7.57;;;14.30;99.90;;;;;;4985106;28;20053;-82
2022/09/24 08:16:11;;;;;;;11.68;6.93;;;14.40;99.90;;;;;;5034131;28;20053;-81
2022/09/24 08:18:38;;;;;;;16.35;7.05;;;14.40;99.90;;;;;;5032446;28;20128;-82
2022/09/24 08:21:10;;;;;;;12.77;6.78;;;14.40;99.90;;;;;;5031295;28;20468;-82
2022/09/24 08:23:37;;;;;;;15.85;6.90;;;14.50;99.90;;;;;;5044097;28;20064;-82
2022/09/24 08:26:03;;;;;;;12.15;6.00;;;14.50;99.90;;;;;;5017096;28;20137;-81
2022/09/24 08:28:30;;;;;;;13.73;6.55;;;14.50;99.90;;;;;;5000008;28;20084;-81
2022/09/24 08:31:00;;;;;;;15.60;6.47;;;14.50;99.90;;;;;;5026084;28;20075;-81
2022/09/24 08:33:31;;;;;;;12.75;5.72;;;14.50;99.90;;;;;;5049667;28;20054;-81
2022/09/24 08:36:01;;;;;;;14.73;6.60;;;14.50;99.90;;;;;;5016420;28;20065;-82
2022/09/24 08:38:27;;;;;;;18.35;6.18;;;14.50;99.90;;;;;;5009395;28;20045;-81
2022/09/24 08:41:05;;;;;;;14.50;5.85;;;14.60;99.90;;;;;;5031707;28;20550;-81
2022/09/24 08:44:09;;;;;;;10.48;5.32;;;14.50;99.90;;;;;;5016785;28;20056;-81
2022/09/24 08:49:32;;;;;;;13.80;5.60;;;14.60;99.90;;;;;;5023196;28;20064;-82
2022/09/24 08:52:23;;;;;;;8.27;4.93;;;14.60;99.90;;;;;;5015978;28;20049;-81
2022/09/24 08:54:49;;;;;;;12.63;5.28;;;14.60;99.90;;;;;;5015748;28;20375;-81
2022/09/24 08:57:19;;;;;;;15.02;5.80;;;14.60;99.90;;;;;;4998851;28;20057;-81
2022/09/24 08:59:49;;;;;;;13.93;5.28;;;14.60;99.90;;;;;;5051769;28;20065;-81
2022/09/24 09:02:24;;;;;;;10.38;4.65;;;14.60;99.90;;;;;;5029415;28;20045;-81
2022/09/24 09:05:14;;;;;;;13.00;5.82;;;14.60;99.90;;;;;;5023846;28;20064;-82
2022/09/24 09:07:48;;;;;;;19.65;7.28;;;14.70;99.90;;;;;;5011360;28;20116;-81
2022/09/24 09:10:17;;;;;;;13.70;4.93;;;14.70;99.90;;;;;;5019096;28;20407;-81
2022/09/24 09:12:55;;;;;;;15.10;3.97;;;14.80;99.90;;;;;;5018707;28;20052;-81
2022/09/24 09:15:27;;;;;;;10.02;2.95;;;14.80;99.90;;;;;;5035159;28;20052;-81
2022/09/24 09:18:12;;;;;;;11.48;3.20;;;14.80;99.90;;;;;;5007372;28;20080;-84
2022/09/24 09:20:41;;;;;;;8.23;2.85;;;14.80;99.90;;;;;;5015183;28;20053;-82
2022/09/24 09:23:20;;;;;;;6.88;2.60;;;14.80;99.90;;;;;;5032868;28;20419;-82
2022/09/24 09:25:51;;;;;;;14.90;3.25;;;14.80;99.90;;;;;;5019081;28;20103;-81
2022/09/24 09:28:18;;;;;;;12.73;3.05;;;14.90;99.90;;;;;;5002829;28;20047;-81
2022/09/24 09:31:06;;;;;;;14.07;2.58;;;14.80;99.90;;;;;;5047480;28;20053;-82
2022/09/24 09:33:55;;;;;;;7.38;2.17;;;14.80;99.90;;;;;;5039065;28;20050;-82
2022/09/24 09:36:52;;;;;;;8.52;2.78;;;14.80;99.90;;;;;;4998173;28;20049;-81
2022/09/24 09:39:39;;;;;;;10.07;2.30;;;14.90;99.90;;;;;;5002867;28;20143;-82
2022/09/24 09:42:17;;;;;;;5.47;1.92;;;14.90;99.90;;;;;;5028261;28;20045;-82
2022/09/24 09:44:44;;;;;;;8.32;1.92;;;14.90;99.90;;;;;;5017671;28;20399;-86
2022/09/24 09:47:39;;;;;;;5.85;1.25;;;14.90;99.90;;;;;;5007752;28;20045;-82
2022/09/24 09:50:50;;;;;;;4.15;1.33;;;14.90;99.90;;;;;;5044503;28;20061;-84
2022/09/24 09:53:20;;;;;;;5.72;2.03;;;15.00;99.90;;;;;;4967688;28;20100;-82
2022/09/24 09:56:02;;;;;;;10.02;1.80;;;15.00;99.90;;;;;;5011815;28;20107;-82
2022/09/24 09:58:42;;;;;;;3.60;1.30;;;15.10;99.90;;;;;;4984734;28;20128;-83
2022/09/24 10:01:09;;;;;;;6.80;1.25;;;15.10;99.90;;;;;;5029897;28;20163;-83
2022/09/24 10:03:48;;;;;;;8.00;4.25;;;15.20;99.90;;;;;;5029308;28;20049;-83
2022/09/24 10:06:25;;;;;;;12.32;5.15;;;15.20;99.90;;;;;;5015868;28;20446;-83
2022/09/24 10:08:51;;;;;;;5.15;1.35;;;15.40;99.90;;;;;;5033761;28;20110;-84
2022/09/24 10:11:18;;;;;;;7.78;1.00;;;15.40;99.90;;;;;;5002712;28;20037;-83
2022/09/24 10:13:44;;;;;;;5.57;0.90;;;15.50;99.90;;;;;;5040205;28;20052;-84
2022/09/24 10:16:14;;;;;;;2.92;1.08;;;15.60;99.90;;;;;;5019258;28;20048;-82
2022/09/24 10:18:47;;;;;;;5.47;0.90;;;15.60;99.90;;;;;;5010012;28;20194;-84
2022/09/24 10:21:35;;;;;;;6.45;1.10;;;15.70;99.90;;;;;;5014397;28;20072;-85
2022/09/24 10:24:08;;;;;;;3.30;1.02;;;15.60;99.90;;;;;;5014645;28;20053;-83
2022/09/24 10:26:44;;;;;;;6.68;1.60;;;15.50;99.90;;;;;;5031503;28;20483;-84
2022/09/24 10:32:05;;;;;;;10.93;1.95;;;15.40;99.90;;;;;;5034195;28;20052;-84
2022/09/24 10:34:31;;;;;;;8.77;1.52;;;15.30;99.90;;;;;;5034276;28;20056;-84
2022/09/24 10:37:01;;;;;;;6.97;1.35;;;15.30;99.90;;;;;;5015404;28;20049;-83
2022/09/24 10:39:27;;;;;;;5.38;2.00;;;15.30;99.90;;;;;;5051780;28;20139;-84
2022/09/24 10:41:56;;;;;;;8.88;1.63;;;15.20;99.90;;;;;;5051709;28;20400;-84
2022/09/24 10:44:23;;;;;;;6.85;1.23;;;15.20;99.90;;;;;;5034371;28;20184;-85
2022/09/24 10:47:15;;;;;;;9.55;1.83;;;15.10;99.90;;;;;;5005291;28;20049;-84
2022/09/24 10:49:47;;;;;;;7.82;1.98;;;15.10;99.90;;;;;;5046355;28;20131;-83
2022/09/24 10:52:18;;;;;;;5.03;1.10;;;15.10;99.90;;;;;;5021354;28;20057;-83
2022/09/24 10:55:18;;;;;;;9.30;1.33;;;15.10;99.90;;;;;;5037574;28;20053;-85
2022/09/24 10:57:59;;;;;;;8.85;1.92;;;15.20;99.90;;;;;;5055340;28;20079;-83
2022/09/24 11:00:33;;;;;;;8.40;1.20;;;15.20;99.90;;;;;;5006475;28;20041;-84
2022/09/24 11:03:32;;;;;;;5.57;1.25;;;15.40;99.90;;;;;;5033097;28;20484;-83
2022/09/24 11:06:13;;;;;;;9.07;1.58;;;15.40;99.90;;;;;;5017541;28;20049;-83
2022/09/24 11:08:53;;;;;;;5.97;1.20;;;15.30;99.90;;;;;;5017854;28;20480;-84
2022/09/24 11:11:30;;;;;;;8.98;1.17;;;15.30;99.90;;;;;;5018115;28;20042;-83
2022/09/24 11:14:25;;;;;;;5.57;1.17;;;15.30;99.90;;;;;;4997963;28;20508;-85
2022/09/24 11:17:14;;;;;;;5.28;1.23;;;15.20;99.90;;;;;;5030630;28;20567;-83
2022/09/24 11:20:12;;;;;;;4.57;0.80;;;15.20;99.90;;;;;;4997480;28;20093;-82
2022/09/24 11:22:59;;;;;;;5.43;1.38;;;15.20;99.90;;;;;;4997658;28;20069;-83
2022/09/24 11:25:38;;;;;;;6.57;1.20;;;15.10;99.90;;;;;;4981479;28;20045;-83
2022/09/24 11:28:21;;;;;;;5.10;1.00;;;15.20;99.90;;;;;;5030628;28;20042;-83
2022/09/24 11:31:21;;;;;;;7.05;1.20;;;15.20;99.90;;;;;;5017912;28;20388;-83
2022/09/24 11:33:57;;;;;;;4.25;1.20;;;15.30;99.90;;;;;;5033542;28;20372;-83
2022/09/24 11:37:07;;;;;;;6.15;0.70;;;15.40;99.90;;;;;;5017084;28;20084;-83
2022/09/24 11:40:09;;;;;;;3.75;1.50;;;15.40;99.90;;;;;;4986445;28;20057;-84
2022/09/24 11:43:03;;;;;;;1.98;0.55;;;15.40;99.90;;;;;;5012676;28;20057;-83
2022/09/24 11:46:09;;;;;;;2.95;1.02;;;15.40;99.90;;;;;;5036939;28;20061;-82
2022/09/24 11:49:03;;;;;;;3.80;0.52;;;15.40;99.90;;;;;;5036371;28;20131;-83
2022/09/24 11:51:35;;;;;;;1.90;0.45;;;15.30;99.90;;;;;;5001462;28;20049;-85
2022/09/24 11:54:13;;;;;;;0.82;0.30;;;15.30;99.90;;;;;;5011854;28;20049;-85
2022/09/24 11:56:45;;;;;;;4.47;0.80;;;15.30;99.90;;;;;;5000397;28;20160;-84
2022/09/24 11:59:13;;;;;;;;;;;15.20;99.90;;;;;;5020573;28;20503;-84
2022/09/24 12:01:51;;;;;;;1.70;0.52;;;15.30;99.90;;;;;;5016678;28;19925;-87
2022/09/24 12:04:53;;;;;;;2.15;0.55;;;15.40;99.90;;;;;;5026857;28;20123;-85
2022/09/24 12:08:01;;;;;;;2.10;0.65;;;15.50;99.90;;;;;;4978214;28;20119;-83
2022/09/24 12:11:10;;;;;;;2.72;0.75;;;15.60;99.90;;;;;;5016061;28;20049;-83
2022/09/24 12:14:01;;;;;;;2.25;0.68;;;15.80;99.90;;;;;;5012384;28;20107;-84
2022/09/24 12:16:31;;;;;;;3.50;0.95;;;15.90;99.90;;;;;;5015797;28;20511;-84
2022/09/24 12:19:09;;;;;;;3.80;0.85;;;16.00;99.90;;;;;;5016158;28;20057;-83
2022/09/24 12:21:40;;;;;;;3.47;0.70;;;16.10;99.90;;;;;;5014284;28;20079;-84
2022/09/24 12:24:15;;;;;;;3.45;0.70;;;16.10;99.90;;;;;;5013055;28;20061;-84
2022/09/24 12:26:42;;;;;;;3.03;0.52;;;16.10;99.90;;;;;;4996582;28;20448;-83
2022/09/24 12:32:53;;;;;;;1.48;0.60;;;16.20;99.90;;;;;;5033220;28;20045;-83
2022/09/24 12:35:28;;;;;;;2.50;0.47;;;16.20;99.90;;;;;;5035567;28;20137;-83
2022/09/24 12:38:09;;;;;;;3.63;0.50;;;16.20;99.90;;;;;;5053234;28;20127;-84
2022/09/24 12:41:16;;;;;;;7.25;0.82;;;16.20;99.90;;;;;;5032196;28;20053;-85
2022/09/24 12:43:58;;;;;;;1.77;0.50;;;16.20;99.90;;;;;;4917991;29;20055;-83
2022/09/24 12:46:44;;;;;;;;;;;16.20;99.90;;;;;;4994358;28;20057;-85
2022/09/24 12:49:24;;;;;;;2.05;0.50;;;16.10;99.90;;;;;;5031069;28;20367;-83
2022/09/24 12:52:29;;;;;;;1.50;0.50;;;16.20;99.90;;;;;;5004460;28;20051;-84
2022/09/24 12:55:01;;;;;;;4.20;0.50;;;16.20;99.90;;;;;;5030253;28;20053;-84
2022/09/24 12:57:52;;;;;;;2.65;0.50;;;16.20;99.90;;;;;;5002588;28;20388;-84
2022/09/24 13:00:38;;;;;;;1.38;0.40;;;16.20;99.90;;;;;;5021838;28;20053;-83
2022/09/24 13:03:06;;;;;;;1.75;0.70;;;16.10;99.90;;;;;;5029301;28;20041;-83
2022/09/24 13:05:46;;;;;;;1.50;0.30;;;16.10;99.90;;;;;;5008764;28;20049;-83
2022/09/24 13:08:21;;;;;;;5.15;0.52;;;16.00;99.90;;;;;;4994951;28;20128;-84
2022/09/24 13:11:04;;;;;;;1.60;0.30;;;15.90;99.90;;;;;;4995808;28;20060;-83
2022/09/24 13:13:39;;;;;;;1.55;0.30;;;15.80;99.90;;;;;;5013938;28;20128;-83
2022/09/24 13:16:13;;;;;;;3.75;0.82;;;15.70;99.90;;;;;;5033317;28;20041;-84
2022/09/24 13:18:39;;;;;;;2.83;0.52;;;15.70;99.90;;;;;;5034784;28;20045;-84